sensor_id;sensor_type;location;lat;lon;timestamp;temperature;humidity
52125;DHT22;38119;52.710;6.398;2023-04-25T00:01:11;7.00;99.90
52125;DHT22;38119;52.710;6.398;2023-04-25T00:03:38;7.00;99.90
52125;DHT22;38119;52.710;6.398;2023-04-25T00:06:05;7.00;99.90
52125;DHT22;38119;52.710;6.398;2023-04-25T00:08:31;7.00;99.90
52125;DHT22;38119;52.710;6.398;2023-04-25T00:10:58;6.90;99.90
52125;DHT22;38119;52.710;6.398;2023-04-25T00:13:26;6.90;99.90
52125;DHT22;38119;52.710;6.398;2023-04-25T00:15:52;6.90;99.90
52125;DHT22;38119;52.710;6.398;2023-04-25T00:18:19;6.80;99.90
52125;DHT22;38119;52.710;6.398;2023-04-25T00:20:44;6.80;99.90
52125;DHT22;38119;52.710;6.398;2023-04-25T00:23:12;6.70;99.90
52125;DHT22;38119;52.710;6.398;2023-04-25T00:25:43;6.70;99.90
52125;DHT22;38119;52.710;6.398;2023-04-25T00:28:10;6.70;99.90
52125;DHT22;38119;52.710;6.398;2023-04-25T00:30:35;6.70;99.90
52125;DHT22;38119;52.710;6.398;2023-04-25T00:33:01;6.60;99.90
52125;DHT22;38119;52.710;6.398;2023-04-25T00:35:26;6.60;99.90
52125;DHT22;38119;52.710;6.398;2023-04-25T00:37:52;6.60;99.90
52125;DHT22;38119;52.710;6.398;2023-04-25T00:40:18;6.60;99.90
52125;DHT22;38119;52.710;6.398;2023-04-25T00:42:44;6.50;99.90
52125;DHT22;38119;52.710;6.398;2023-04-25T00:45:13;6.50;99.90
52125;DHT22;38119;52.710;6.398;2023-04-25T00:47:40;6.50;99.90
52125;DHT22;38119;52.710;6.398;2023-04-25T00:50:06;6.50;99.90
52125;DHT22;38119;52.710;6.398;2023-04-25T00:52:32;6.50;99.90
52125;DHT22;38119;52.710;6.398;2023-04-25T00:54:58;6.50;99.90
52125;DHT22;38119;52.710;6.398;2023-04-25T00:57:27;6.50;99.90
52125;DHT22;38119;52.710;6.398;2023-04-25T00:59:54;6.50;99.90
52125;DHT22;38119;52.710;6.398;2023-04-25T01:02:20;6.50;99.90
52125;DHT22;38119;52.710;6.398;2023-04-25T01:04:47;6.50;99.90
52125;DHT22;38119;52.710;6.398;2023-04-25T01:07:12;6.50;99.90
52125;DHT22;38119;52.710;6.398;2023-04-25T01:09:38;6.40;99.90
52125;DHT22;38119;52.710;6.398;2023-04-25T01:12:04;7.10;99.90
52125;DHT22;38119;52.710;6.398;2023-04-25T01:14:30;6.40;99.90
52125;DHT22;38119;52.710;6.398;2023-04-25T01:16:56;6.30;99.90
52125;DHT22;38119;52.710;6.398;2023-04-25T01:19:21;6.40;99.90
52125;DHT22;38119;52.710;6.398;2023-04-25T01:21:47;6.30;99.90
52125;DHT22;38119;52.710;6.398;2023-04-25T01:24:13;7.10;99.90
52125;DHT22;38119;52.710;6.398;2023-04-25T01:26:40;6.30;99.90
52125;DHT22;38119;52.710;6.398;2023-04-25T01:29:09;6.30;99.90
52125;DHT22;38119;52.710;6.398;2023-04-25T01:31:36;6.30;99.90
52125;DHT22;38119;52.710;6.398;2023-04-25T01:34:02;6.20;99.90
52125;DHT22;38119;52.710;6.398;2023-04-25T01:36:28;6.30;99.90
52125;DHT22;38119;52.710;6.398;2023-04-25T01:38:53;6.20;99.90
52125;DHT22;38119;52.710;6.398;2023-04-25T01:41:20;6.30;99.90
52125;DHT22;38119;52.710;6.398;2023-04-25T01:43:48;6.30;99.90
52125;DHT22;38119;52.710;6.398;2023-04-25T01:46:14;6.20;99.90
52125;DHT22;38119;52.710;6.398;2023-04-25T01:48:40;6.30;99.90
52125;DHT22;38119;52.710;6.398;2023-04-25T01:51:06;6.20;99.90
52125;DHT22;38119;52.710;6.398;2023-04-25T01:53:31;6.20;99.90
52125;DHT22;38119;52.710;6.398;2023-04-25T01:55:57;6.20;99.90
52125;DHT22;38119;52.710;6.398;2023-04-25T01:58:23;6.20;99.90
52125;DHT22;38119;52.710;6.398;2023-04-25T02:00:48;6.20;99.90
52125;DHT22;38119;52.710;6.398;2023-04-25T02:03:14;6.30;99.90
52125;DHT22;38119;52.710;6.398;2023-04-25T02:05:40;6.20;99.90
52125;DHT22;38119;52.710;6.398;2023-04-25T02:08:07;6.30;99.90
52125;DHT22;38119;52.710;6.398;2023-04-25T02:10:34;6.20;99.90
52125;DHT22;38119;52.710;6.398;2023-04-25T02:13:00;6.30;99.90
52125;DHT22;38119;52.710;6.398;2023-04-25T02:15:26;6.30;99.90
52125;DHT22;38119;52.710;6.398;2023-04-25T02:17:52;6.30;99.90
52125;DHT22;38119;52.710;6.398;2023-04-25T02:20:22;6.30;99.90
52125;DHT22;38119;52.710;6.398;2023-04-25T02:22:48;6.30;99.90
52125;DHT22;38119;52.710;6.398;2023-04-25T02:25:14;6.20;99.90
52125;DHT22;38119;52.710;6.398;2023-04-25T02:27:39;6.40;99.90
52125;DHT22;38119;52.710;6.398;2023-04-25T02:30:05;6.30;99.90
52125;DHT22;38119;52.710;6.398;2023-04-25T02:32:32;6.40;99.90
52125;DHT22;38119;52.710;6.398;2023-04-25T02:35:00;6.30;99.90
52125;DHT22;38119;52.710;6.398;2023-04-25T02:37:29;6.40;99.90
52125;DHT22;38119;52.710;6.398;2023-04-25T02:39:55;6.40;99.90
52125;DHT22;38119;52.710;6.398;2023-04-25T02:42:21;6.40;99.90
52125;DHT22;38119;52.710;6.398;2023-04-25T02:44:46;6.40;99.90
52125;DHT22;38119;52.710;6.398;2023-04-25T02:47:12;7.20;99.90
52125;DHT22;38119;52.710;6.398;2023-04-25T02:49:37;6.30;99.90
52125;DHT22;38119;52.710;6.398;2023-04-25T02:52:03;6.50;99.90
52125;DHT22;38119;52.710;6.398;2023-04-25T02:54:29;6.90;99.90
52125;DHT22;38119;52.710;6.398;2023-04-25T02:56:55;6.50;99.90
52125;DHT22;38119;52.710;6.398;2023-04-25T02:59:21;7.80;99.90
52125;DHT22;38119;52.710;6.398;2023-04-25T03:01:47;6.50;99.90
52125;DHT22;38119;52.710;6.398;2023-04-25T03:04:12;6.50;99.90
52125;DHT22;38119;52.710;6.398;2023-04-25T03:06:38;6.50;99.90
52125;DHT22;38119;52.710;6.398;2023-04-25T03:09:05;6.50;99.90
52125;DHT22;38119;52.710;6.398;2023-04-25T03:11:31;6.50;99.90
52125;DHT22;38119;52.710;6.398;2023-04-25T03:13:57;6.50;99.90
52125;DHT22;38119;52.710;6.398;2023-04-25T03:16:23;6.50;99.90
52125;DHT22;38119;52.710;6.398;2023-04-25T03:18:49;6.50;99.90
52125;DHT22;38119;52.710;6.398;2023-04-25T03:21:16;6.50;99.90
52125;DHT22;38119;52.710;6.398;2023-04-25T03:23:43;6.50;99.90
52125;DHT22;38119;52.710;6.398;2023-04-25T03:26:09;6.50;99.90
52125;DHT22;38119;52.710;6.398;2023-04-25T03:28:35;6.40;99.90
52125;DHT22;38119;52.710;6.398;2023-04-25T03:31:00;6.40;99.90
52125;DHT22;38119;52.710;6.398;2023-04-25T03:33:26;7.00;99.90
52125;DHT22;38119;52.710;6.398;2023-04-25T03:35:51;6.40;99.90
52125;DHT22;38119;52.710;6.398;2023-04-25T03:38:17;6.40;99.90
52125;DHT22;38119;52.710;6.398;2023-04-25T03:40:43;6.40;99.90
52125;DHT22;38119;52.710;6.398;2023-04-25T03:43:08;6.30;99.90
52125;DHT22;38119;52.710;6.398;2023-04-25T03:45:34;6.30;99.90
52125;DHT22;38119;52.710;6.398;2023-04-25T03:48:00;6.30;99.90
52125;DHT22;38119;52.710;6.398;2023-04-25T03:50:26;6.50;99.90
52125;DHT22;38119;52.710;6.398;2023-04-25T03:52:52;6.30;99.90
52125;DHT22;38119;52.710;6.398;2023-04-25T03:55:17;6.30;99.90
52125;DHT22;38119;52.710;6.398;2023-04-25T03:57:44;6.30;99.90
52125;DHT22;38119;52.710;6.398;2023-04-25T04:00:10;6.30;99.90
52125;DHT22;38119;52.710;6.398;2023-04-25T04:02:36;6.30;99.90
52125;DHT22;38119;52.710;6.398;2023-04-25T04:05:03;6.30;99.90
52125;DHT22;38119;52.710;6.398;2023-04-25T04:07:29;6.30;99.90
52125;DHT22;38119;52.710;6.398;2023-04-25T04:09:55;6.30;99.90
52125;DHT22;38119;52.710;6.398;2023-04-25T04:12:20;6.30;99.90
52125;DHT22;38119;52.710;6.398;2023-04-25T04:14:46;6.30;99.90
52125;DHT22;38119;52.710;6.398;2023-04-25T04:17:11;6.30;99.90
52125;DHT22;38119;52.710;6.398;2023-04-25T04:19:37;6.20;99.90
52125;DHT22;38119;52.710;6.398;2023-04-25T04:22:02;6.20;99.90
52125;DHT22;38119;52.710;6.398;2023-04-25T04:24:28;6.10;99.90
52125;DHT22;38119;52.710;6.398;2023-04-25T04:26:56;6.20;99.90
52125;DHT22;38119;52.710;6.398;2023-04-25T04:29:22;6.20;99.90
52125;DHT22;38119;52.710;6.398;2023-04-25T04:31:51;7.70;99.90
52125;DHT22;38119;52.710;6.398;2023-04-25T04:34:18;6.20;99.90
52125;DHT22;38119;52.710;6.398;2023-04-25T04:36:47;7.00;99.90
52125;DHT22;38119;52.710;6.398;2023-04-25T04:39:13;6.20;99.90
52125;DHT22;38119;52.710;6.398;2023-04-25T04:41:39;6.20;99.90
52125;DHT22;38119;52.710;6.398;2023-04-25T04:44:05;6.20;99.90
52125;DHT22;38119;52.710;6.398;2023-04-25T04:46:32;6.20;99.90
52125;DHT22;38119;52.710;6.398;2023-04-25T04:49:04;6.20;99.90
52125;DHT22;38119;52.710;6.398;2023-04-25T04:51:30;6.20;99.90
52125;DHT22;38119;52.710;6.398;2023-04-25T04:53:56;6.30;99.90
52125;DHT22;38119;52.710;6.398;2023-04-25T04:56:24;6.30;99.90
52125;DHT22;38119;52.710;6.398;2023-04-25T04:58:51;6.30;99.90
52125;DHT22;38119;52.710;6.398;2023-04-25T05:01:17;6.30;99.90
52125;DHT22;38119;52.710;6.398;2023-04-25T05:03:43;6.80;99.90
52125;DHT22;38119;52.710;6.398;2023-04-25T05:06:09;6.30;99.90
52125;DHT22;38119;52.710;6.398;2023-04-25T05:08:35;6.30;99.90
52125;DHT22;38119;52.710;6.398;2023-04-25T05:11:01;6.30;99.90
52125;DHT22;38119;52.710;6.398;2023-04-25T05:13:27;6.30;99.90
52125;DHT22;38119;52.710;6.398;2023-04-25T05:15:52;6.30;99.90
52125;DHT22;38119;52.710;6.398;2023-04-25T05:18:18;6.30;99.90
52125;DHT22;38119;52.710;6.398;2023-04-25T05:20:44;6.30;99.90
52125;DHT22;38119;52.710;6.398;2023-04-25T05:23:09;6.30;99.90
52125;DHT22;38119;52.710;6.398;2023-04-25T05:25:35;6.30;99.90
52125;DHT22;38119;52.710;6.398;2023-04-25T05:28:00;6.30;99.90
52125;DHT22;38119;52.710;6.398;2023-04-25T05:30:26;6.30;99.90
52125;DHT22;38119;52.710;6.398;2023-04-25T05:32:52;6.30;99.90
52125;DHT22;38119;52.710;6.398;2023-04-25T05:35:18;6.20;99.90
52125;DHT22;38119;52.710;6.398;2023-04-25T05:37:44;6.20;99.90
52125;DHT22;38119;52.710;6.398;2023-04-25T05:40:10;6.20;99.90
52125;DHT22;38119;52.710;6.398;2023-04-25T05:42:35;6.20;99.90
52125;DHT22;38119;52.710;6.398;2023-04-25T05:45:01;6.20;99.90
52125;DHT22;38119;52.710;6.398;2023-04-25T05:47:27;6.00;99.90
52125;DHT22;38119;52.710;6.398;2023-04-25T05:49:53;6.10;99.90
52125;DHT22;38119;52.710;6.398;2023-04-25T05:52:18;6.10;99.90
52125;DHT22;38119;52.710;6.398;2023-04-25T05:54:44;6.10;99.90
52125;DHT22;38119;52.710;6.398;2023-04-25T05:57:25;6.20;99.90
52125;DHT22;38119;52.710;6.398;2023-04-25T05:59:51;6.20;99.90
52125;DHT22;38119;52.710;6.398;2023-04-25T06:02:18;6.30;99.90
52125;DHT22;38119;52.710;6.398;2023-04-25T06:04:44;6.20;99.90
52125;DHT22;38119;52.710;6.398;2023-04-25T06:07:09;6.90;99.90
52125;DHT22;38119;52.710;6.398;2023-04-25T06:09:35;6.20;99.90
52125;DHT22;38119;52.710;6.398;2023-04-25T06:12:01;6.30;99.90
52125;DHT22;38119;52.710;6.398;2023-04-25T06:14:27;6.90;99.90
52125;DHT22;38119;52.710;6.398;2023-04-25T06:16:53;6.40;99.90
52125;DHT22;38119;52.710;6.398;2023-04-25T06:19:20;6.30;99.90
52125;DHT22;38119;52.710;6.398;2023-04-25T06:21:46;6.50;99.90
52125;DHT22;38119;52.710;6.398;2023-04-25T06:24:12;6.50;99.90
52125;DHT22;38119;52.710;6.398;2023-04-25T06:26:37;6.50;99.90
52125;DHT22;38119;52.710;6.398;2023-04-25T06:29:03;6.60;99.90
52125;DHT22;38119;52.710;6.398;2023-04-25T06:31:29;6.60;99.90
52125;DHT22;38119;52.710;6.398;2023-04-25T06:33:57;6.70;99.90
52125;DHT22;38119;52.710;6.398;2023-04-25T06:36:23;6.70;99.90
52125;DHT22;38119;52.710;6.398;2023-04-25T06:38:51;6.70;99.90
52125;DHT22;38119;52.710;6.398;2023-04-25T06:41:17;6.70;99.90
52125;DHT22;38119;52.710;6.398;2023-04-25T06:43:44;6.70;99.90
52125;DHT22;38119;52.710;6.398;2023-04-25T06:46:09;6.60;99.90
52125;DHT22;38119;52.710;6.398;2023-04-25T06:48:35;7.50;99.90
52125;DHT22;38119;52.710;6.398;2023-04-25T06:51:01;6.50;99.90
52125;DHT22;38119;52.710;6.398;2023-04-25T06:53:26;6.50;99.90
52125;DHT22;38119;52.710;6.398;2023-04-25T06:55:52;6.50;99.90
52125;DHT22;38119;52.710;6.398;2023-04-25T06:58:18;7.30;99.90
52125;DHT22;38119;52.710;6.398;2023-04-25T07:00:44;6.50;99.90
52125;DHT22;38119;52.710;6.398;2023-04-25T07:03:09;6.50;99.90
52125;DHT22;38119;52.710;6.398;2023-04-25T07:05:35;6.50;99.90
52125;DHT22;38119;52.710;6.398;2023-04-25T07:08:01;6.60;99.90
52125;DHT22;38119;52.710;6.398;2023-04-25T07:10:26;6.60;99.90
52125;DHT22;38119;52.710;6.398;2023-04-25T07:12:52;6.70;99.90
52125;DHT22;38119;52.710;6.398;2023-04-25T07:15:17;6.70;99.90
52125;DHT22;38119;52.710;6.398;2023-04-25T07:17:43;6.90;99.90
52125;DHT22;38119;52.710;6.398;2023-04-25T07:20:09;6.90;99.90
52125;DHT22;38119;52.710;6.398;2023-04-25T07:22:35;7.00;99.90
52125;DHT22;38119;52.710;6.398;2023-04-25T07:25:01;7.00;99.90
52125;DHT22;38119;52.710;6.398;2023-04-25T07:27:26;7.10;99.90
52125;DHT22;38119;52.710;6.398;2023-04-25T07:29:52;7.10;99.90
52125;DHT22;38119;52.710;6.398;2023-04-25T07:32:18;7.10;99.90
52125;DHT22;38119;52.710;6.398;2023-04-25T07:34:43;7.20;99.90
52125;DHT22;38119;52.710;6.398;2023-04-25T07:37:09;7.20;99.90
52125;DHT22;38119;52.710;6.398;2023-04-25T07:39:35;7.20;99.90
52125;DHT22;38119;52.710;6.398;2023-04-25T07:42:00;7.30;99.90
52125;DHT22;38119;52.710;6.398;2023-04-25T07:44:27;7.30;99.90
52125;DHT22;38119;52.710;6.398;2023-04-25T07:46:53;7.40;99.90
52125;DHT22;38119;52.710;6.398;2023-04-25T07:49:19;7.40;99.90
52125;DHT22;38119;52.710;6.398;2023-04-25T07:51:44;7.40;99.90
52125;DHT22;38119;52.710;6.398;2023-04-25T07:54:13;7.30;99.90
52125;DHT22;38119;52.710;6.398;2023-04-25T07:56:39;7.30;99.90
52125;DHT22;38119;52.710;6.398;2023-04-25T07:59:04;7.20;99.90
52125;DHT22;38119;52.710;6.398;2023-04-25T08:01:30;7.20;99.90
52125;DHT22;38119;52.710;6.398;2023-04-25T08:03:56;7.20;99.90
52125;DHT22;38119;52.710;6.398;2023-04-25T08:06:21;7.30;99.90
52125;DHT22;38119;52.710;6.398;2023-04-25T08:08:47;7.30;99.90
52125;DHT22;38119;52.710;6.398;2023-04-25T08:11:13;7.40;99.90
52125;DHT22;38119;52.710;6.398;2023-04-25T08:13:38;7.50;99.90
52125;DHT22;38119;52.710;6.398;2023-04-25T08:16:04;7.60;99.90
52125;DHT22;38119;52.710;6.398;2023-04-25T08:18:29;7.60;99.90
52125;DHT22;38119;52.710;6.398;2023-04-25T08:20:56;7.70;99.90
52125;DHT22;38119;52.710;6.398;2023-04-25T08:23:22;7.70;99.90
52125;DHT22;38119;52.710;6.398;2023-04-25T08:25:47;7.50;99.90
52125;DHT22;38119;52.710;6.398;2023-04-25T08:28:13;7.30;99.90
52125;DHT22;38119;52.710;6.398;2023-04-25T08:30:38;7.20;99.90
52125;DHT22;38119;52.710;6.398;2023-04-25T08:33:04;7.10;99.90
52125;DHT22;38119;52.710;6.398;2023-04-25T08:35:29;7.00;99.90
52125;DHT22;38119;52.710;6.398;2023-04-25T08:37:55;7.00;99.90
52125;DHT22;38119;52.710;6.398;2023-04-25T08:40:22;7.10;99.90
52125;DHT22;38119;52.710;6.398;2023-04-25T08:42:54;7.20;99.90
52125;DHT22;38119;52.710;6.398;2023-04-25T08:45:20;7.30;99.90
52125;DHT22;38119;52.710;6.398;2023-04-25T08:47:47;7.50;99.90
52125;DHT22;38119;52.710;6.398;2023-04-25T08:50:14;7.60;99.90
52125;DHT22;38119;52.710;6.398;2023-04-25T08:52:50;7.70;99.90
52125;DHT22;38119;52.710;6.398;2023-04-25T08:55:18;7.80;99.90
52125;DHT22;38119;52.710;6.398;2023-04-25T08:57:44;7.90;99.90
52125;DHT22;38119;52.710;6.398;2023-04-25T09:00:11;8.00;99.90
52125;DHT22;38119;52.710;6.398;2023-04-25T09:02:39;8.00;99.90
52125;DHT22;38119;52.710;6.398;2023-04-25T09:05:05;8.20;99.90
52125;DHT22;38119;52.710;6.398;2023-04-25T09:07:32;8.40;99.90
52125;DHT22;38119;52.710;6.398;2023-04-25T09:09:58;8.80;99.90
52125;DHT22;38119;52.710;6.398;2023-04-25T09:12:27;9.20;99.90
52125;DHT22;38119;52.710;6.398;2023-04-25T09:15:08;9.50;99.90
52125;DHT22;38119;52.710;6.398;2023-04-25T09:17:34;9.80;99.90
52125;DHT22;38119;52.710;6.398;2023-04-25T09:20:09;10.00;99.90
52125;DHT22;38119;52.710;6.398;2023-04-25T09:22:36;10.40;99.90
52125;DHT22;38119;52.710;6.398;2023-04-25T09:25:03;10.70;99.90
52125;DHT22;38119;52.710;6.398;2023-04-25T09:27:29;10.80;99.90
52125;DHT22;38119;52.710;6.398;2023-04-25T09:29:59;10.80;99.90
52125;DHT22;38119;52.710;6.398;2023-04-25T09:32:25;10.60;99.90
52125;DHT22;38119;52.710;6.398;2023-04-25T09:34:56;10.50;99.90
52125;DHT22;38119;52.710;6.398;2023-04-25T09:37:23;10.30;99.90
52125;DHT22;38119;52.710;6.398;2023-04-25T09:39:54;10.30;99.90
52125;DHT22;38119;52.710;6.398;2023-04-25T09:42:22;10.50;99.90
52125;DHT22;38119;52.710;6.398;2023-04-25T09:44:51;10.80;99.90
52125;DHT22;38119;52.710;6.398;2023-04-25T09:47:18;11.00;99.90
52125;DHT22;38119;52.710;6.398;2023-04-25T09:49:46;11.20;99.90
52125;DHT22;38119;52.710;6.398;2023-04-25T09:52:19;11.30;99.90
52125;DHT22;38119;52.710;6.398;2023-04-25T09:54:46;11.30;99.90
52125;DHT22;38119;52.710;6.398;2023-04-25T09:57:21;11.50;99.90
52125;DHT22;38119;52.710;6.398;2023-04-25T09:59:49;11.60;99.90
52125;DHT22;38119;52.710;6.398;2023-04-25T10:02:17;11.70;99.90
52125;DHT22;38119;52.710;6.398;2023-04-25T10:04:45;11.90;99.90
52125;DHT22;38119;52.710;6.398;2023-04-25T10:07:13;12.00;99.90
52125;DHT22;38119;52.710;6.398;2023-04-25T10:09:40;12.20;99.90
52125;DHT22;38119;52.710;6.398;2023-04-25T10:12:07;12.40;99.90
52125;DHT22;38119;52.710;6.398;2023-04-25T10:14:33;12.40;99.90
52125;DHT22;38119;52.710;6.398;2023-04-25T10:17:00;12.40;99.90
52125;DHT22;38119;52.710;6.398;2023-04-25T10:19:27;12.10;99.90
52125;DHT22;38119;52.710;6.398;2023-04-25T10:24:19;11.30;99.90
52125;DHT22;38119;52.710;6.398;2023-04-25T10:26:46;11.00;99.90
52125;DHT22;38119;52.710;6.398;2023-04-25T10:29:12;10.80;99.90
52125;DHT22;38119;52.710;6.398;2023-04-25T10:31:47;10.70;99.90
52125;DHT22;38119;52.710;6.398;2023-04-25T10:34:13;10.60;99.90
52125;DHT22;38119;52.710;6.398;2023-04-25T10:36:39;10.40;99.90
52125;DHT22;38119;52.710;6.398;2023-04-25T10:39:05;10.20;99.90
52125;DHT22;38119;52.710;6.398;2023-04-25T10:41:45;10.00;99.90
52125;DHT22;38119;52.710;6.398;2023-04-25T10:44:12;9.90;99.90
52125;DHT22;38119;52.710;6.398;2023-04-25T10:46:38;9.70;99.90
52125;DHT22;38119;52.710;6.398;2023-04-25T10:49:04;9.60;99.90
52125;DHT22;38119;52.710;6.398;2023-04-25T10:51:34;9.50;99.90
52125;DHT22;38119;52.710;6.398;2023-04-25T10:54:04;9.50;99.90
52125;DHT22;38119;52.710;6.398;2023-04-25T10:56:32;9.60;99.90
52125;DHT22;38119;52.710;6.398;2023-04-25T10:59:11;9.60;99.90
52125;DHT22;38119;52.710;6.398;2023-04-25T11:01:41;9.70;99.90
52125;DHT22;38119;52.710;6.398;2023-04-25T11:04:31;9.80;99.90
52125;DHT22;38119;52.710;6.398;2023-04-25T11:07:13;10.00;99.90
52125;DHT22;38119;52.710;6.398;2023-04-25T11:09:42;10.40;99.90
52125;DHT22;38119;52.710;6.398;2023-04-25T11:12:10;10.70;99.90
52125;DHT22;38119;52.710;6.398;2023-04-25T11:14:39;11.00;99.90
52125;DHT22;38119;52.710;6.398;2023-04-25T11:17:05;11.20;99.90
52125;DHT22;38119;52.710;6.398;2023-04-25T11:19:31;11.50;99.90
52125;DHT22;38119;52.710;6.398;2023-04-25T11:22:01;11.90;99.90
52125;DHT22;38119;52.710;6.398;2023-04-25T11:24:29;12.30;99.90
52125;DHT22;38119;52.710;6.398;2023-04-25T11:26:55;12.50;99.90
52125;DHT22;38119;52.710;6.398;2023-04-25T11:29:26;12.70;99.90
52125;DHT22;38119;52.710;6.398;2023-04-25T11:31:53;12.90;99.90
52125;DHT22;38119;52.710;6.398;2023-04-25T11:34:19;13.00;99.90
52125;DHT22;38119;52.710;6.398;2023-04-25T11:36:45;13.20;99.90
52125;DHT22;38119;52.710;6.398;2023-04-25T11:39:11;13.30;99.90
52125;DHT22;38119;52.710;6.398;2023-04-25T11:41:38;13.40;99.90
52125;DHT22;38119;52.710;6.398;2023-04-25T11:44:04;13.40;99.90
52125;DHT22;38119;52.710;6.398;2023-04-25T11:46:30;13.50;99.90
52125;DHT22;38119;52.710;6.398;2023-04-25T11:48:59;13.60;99.90
52125;DHT22;38119;52.710;6.398;2023-04-25T11:51:24;13.50;99.90
52125;DHT22;38119;52.710;6.398;2023-04-25T11:53:51;13.30;99.90
52125;DHT22;38119;52.710;6.398;2023-04-25T11:56:17;13.00;99.60
52125;DHT22;38119;52.710;6.398;2023-04-25T11:58:59;12.90;99.90
52125;DHT22;38119;52.710;6.398;2023-04-25T12:01:30;12.90;99.90
52125;DHT22;38119;52.710;6.398;2023-04-25T12:03:56;13.10;99.90
52125;DHT22;38119;52.710;6.398;2023-04-25T12:06:27;13.30;99.90
52125;DHT22;38119;52.710;6.398;2023-04-25T12:09:20;13.50;99.90
52125;DHT22;38119;52.710;6.398;2023-04-25T12:11:53;13.70;98.40
52125;DHT22;38119;52.710;6.398;2023-04-25T12:14:23;13.90;98.90
52125;DHT22;38119;52.710;6.398;2023-04-25T12:16:50;13.70;98.70
52125;DHT22;38119;52.710;6.398;2023-04-25T12:19:17;13.60;99.00
52125;DHT22;38119;52.710;6.398;2023-04-25T12:21:44;13.20;98.70
52125;DHT22;38119;52.710;6.398;2023-04-25T12:24:17;12.90;99.40
52125;DHT22;38119;52.710;6.398;2023-04-25T12:26:49;12.60;99.50
52125;DHT22;38119;52.710;6.398;2023-04-25T12:29:23;12.20;99.00
52125;DHT22;38119;52.710;6.398;2023-04-25T12:31:51;11.80;99.60
52125;DHT22;38119;52.710;6.398;2023-04-25T12:34:21;11.50;99.90
52125;DHT22;38119;52.710;6.398;2023-04-25T12:36:47;11.20;99.90
52125;DHT22;38119;52.710;6.398;2023-04-25T12:39:21;11.00;99.90
52125;DHT22;38119;52.710;6.398;2023-04-25T12:41:48;10.80;99.90
52125;DHT22;38119;52.710;6.398;2023-04-25T12:44:14;10.70;99.90
52125;DHT22;38119;52.710;6.398;2023-04-25T12:46:40;10.80;99.90
52125;DHT22;38119;52.710;6.398;2023-04-25T12:49:08;11.10;99.90
52125;DHT22;38119;52.710;6.398;2023-04-25T12:51:35;11.40;99.90
52125;DHT22;38119;52.710;6.398;2023-04-25T12:54:01;11.50;99.90
52125;DHT22;38119;52.710;6.398;2023-04-25T12:56:28;11.70;99.90
52125;DHT22;38119;52.710;6.398;2023-04-25T12:58:54;11.90;99.90
52125;DHT22;38119;52.710;6.398;2023-04-25T13:01:20;12.00;99.90
52125;DHT22;38119;52.710;6.398;2023-04-25T13:03:47;12.20;99.90
52125;DHT22;38119;52.710;6.398;2023-04-25T13:06:13;12.30;99.90
52125;DHT22;38119;52.710;6.398;2023-04-25T13:08:39;12.50;99.90
52125;DHT22;38119;52.710;6.398;2023-04-25T13:11:06;12.70;99.50
52125;DHT22;38119;52.710;6.398;2023-04-25T13:13:32;12.70;99.20
52125;DHT22;38119;52.710;6.398;2023-04-25T13:16:03;12.60;99.20
52125;DHT22;38119;52.710;6.398;2023-04-25T13:18:30;12.50;98.90
52125;DHT22;38119;52.710;6.398;2023-04-25T13:20:56;12.20;98.70
52125;DHT22;38119;52.710;6.398;2023-04-25T13:23:22;11.90;99.80
52125;DHT22;38119;52.710;6.398;2023-04-25T13:25:48;11.60;99.90
52125;DHT22;38119;52.710;6.398;2023-04-25T13:28:14;11.30;99.90
52125;DHT22;38119;52.710;6.398;2023-04-25T13:30:40;11.10;99.90
52125;DHT22;38119;52.710;6.398;2023-04-25T13:33:06;10.90;99.90
52125;DHT22;38119;52.710;6.398;2023-04-25T13:35:33;10.80;99.90
52125;DHT22;38119;52.710;6.398;2023-04-25T13:37:59;10.70;99.90
52125;DHT22;38119;52.710;6.398;2023-04-25T13:40:25;10.80;99.90
52125;DHT22;38119;52.710;6.398;2023-04-25T13:42:52;10.90;99.90
52125;DHT22;38119;52.710;6.398;2023-04-25T13:45:18;11.10;99.90
52125;DHT22;38119;52.710;6.398;2023-04-25T13:47:44;11.20;99.90
52125;DHT22;38119;52.710;6.398;2023-04-25T13:50:10;11.30;99.90
52125;DHT22;38119;52.710;6.398;2023-04-25T13:52:35;11.30;99.90
52125;DHT22;38119;52.710;6.398;2023-04-25T13:55:01;11.20;99.90
52125;DHT22;38119;52.710;6.398;2023-04-25T13:57:30;11.20;99.90
52125;DHT22;38119;52.710;6.398;2023-04-25T13:59:55;11.00;99.90
52125;DHT22;38119;52.710;6.398;2023-04-25T14:02:21;10.80;99.90
52125;DHT22;38119;52.710;6.398;2023-04-25T14:04:46;10.70;99.90
52125;DHT22;38119;52.710;6.398;2023-04-25T14:07:13;10.50;99.90
52125;DHT22;38119;52.710;6.398;2023-04-25T14:09:41;10.40;99.90
52125;DHT22;38119;52.710;6.398;2023-04-25T14:12:07;10.30;99.90
52125;DHT22;38119;52.710;6.398;2023-04-25T14:14:32;10.20;99.90
52125;DHT22;38119;52.710;6.398;2023-04-25T14:16:58;10.20;99.90
52125;DHT22;38119;52.710;6.398;2023-04-25T14:19:24;10.30;99.90
52125;DHT22;38119;52.710;6.398;2023-04-25T14:21:50;10.40;99.90
52125;DHT22;38119;52.710;6.398;2023-04-25T14:24:15;10.50;99.90
52125;DHT22;38119;52.710;6.398;2023-04-25T14:26:41;10.60;99.90
52125;DHT22;38119;52.710;6.398;2023-04-25T14:29:08;10.60;99.90
52125;DHT22;38119;52.710;6.398;2023-04-25T14:31:34;10.50;99.90
52125;DHT22;38119;52.710;6.398;2023-04-25T14:34:01;10.40;99.90
52125;DHT22;38119;52.710;6.398;2023-04-25T14:36:28;10.20;99.90
52125;DHT22;38119;52.710;6.398;2023-04-25T14:38:54;10.10;99.90
52125;DHT22;38119;52.710;6.398;2023-04-25T14:41:20;9.90;99.90
52125;DHT22;38119;52.710;6.398;2023-04-25T14:43:46;9.80;99.90
52125;DHT22;38119;52.710;6.398;2023-04-25T14:46:12;9.70;99.90
52125;DHT22;38119;52.710;6.398;2023-04-25T14:48:38;9.70;99.90
52125;DHT22;38119;52.710;6.398;2023-04-25T14:51:04;9.70;99.90
52125;DHT22;38119;52.710;6.398;2023-04-25T14:53:30;9.70;99.90
52125;DHT22;38119;52.710;6.398;2023-04-25T14:55:56;9.10;99.90
52125;DHT22;38119;52.710;6.398;2023-04-25T14:58:21;9.80;99.90
52125;DHT22;38119;52.710;6.398;2023-04-25T15:00:48;9.90;99.90
52125;DHT22;38119;52.710;6.398;2023-04-25T15:03:15;10.10;99.90
52125;DHT22;38119;52.710;6.398;2023-04-25T15:05:42;10.20;99.90
52125;DHT22;38119;52.710;6.398;2023-04-25T15:08:08;10.30;99.90
52125;DHT22;38119;52.710;6.398;2023-04-25T15:10:34;10.30;99.90
52125;DHT22;38119;52.710;6.398;2023-04-25T15:12:59;10.30;99.90
52125;DHT22;38119;52.710;6.398;2023-04-25T15:15:26;10.20;99.90
52125;DHT22;38119;52.710;6.398;2023-04-25T15:17:52;10.10;99.90
52125;DHT22;38119;52.710;6.398;2023-04-25T15:20:19;10.00;99.90
52125;DHT22;38119;52.710;6.398;2023-04-25T15:22:44;9.90;99.90
52125;DHT22;38119;52.710;6.398;2023-04-25T15:25:11;9.80;99.90
52125;DHT22;38119;52.710;6.398;2023-04-25T15:27:38;9.90;99.90
52125;DHT22;38119;52.710;6.398;2023-04-25T15:30:07;9.90;99.90
52125;DHT22;38119;52.710;6.398;2023-04-25T15:32:34;9.90;99.90
52125;DHT22;38119;52.710;6.398;2023-04-25T15:35:03;10.00;99.90
52125;DHT22;38119;52.710;6.398;2023-04-25T15:37:28;9.90;99.90
52125;DHT22;38119;52.710;6.398;2023-04-25T15:40:15;9.90;99.90